Time;durP1;ratioP1;P1;durP2;ratioP2;P2;SDS_P1;SDS_P2;PMS_P1;PMS_P2;Temp;Humidity;BMP_temperature;BMP_pressure;BME280_temperature;BME280_humidity;BME280_pressure;Samples;Min_cycle;Max_cycle;Signal;HPM_P1;HPM_P2
2022/11/08 00:03:41;;;;;;;;;;;13.30;99.90;;;;;;5043837;28;20019;-72
2022/11/08 00:14:19;;;;;;;;;;;13.40;99.90;;;;;;5050025;28;20009;-72
2022/11/08 00:16:44;;;;;;;;;;;13.50;99.90;;;;;;5050651;28;19982;-72
2022/11/08 00:19:10;;;;;;;;;;;13.20;99.90;;;;;;5050350;28;19925;-72
2022/11/08 00:24:01;;;;;;;;;;;13.50;99.90;;;;;;5128952;22;20457;-71
2022/11/08 00:26:26;;;;;;;;;;;13.20;99.90;;;;;;5094164;28;19926;-72
2022/11/08 00:28:52;;;;;;;;;;;13.60;99.90;;;;;;5094081;28;19999;-72
2022/11/08 00:31:17;;;;;;;;;;;13.30;99.90;;;;;;5112299;28;19920;-72
2022/11/08 00:33:43;;;;;;;;;;;13.40;99.90;;;;;;5062870;28;19919;-70
2022/11/08 00:36:08;;;;;;;;;;;13.40;99.90;;;;;;5077137;28;20305;-72
2022/11/08 00:38:34;;;;;;;;;;;13.40;99.90;;;;;;5077491;28;19927;-72
2022/11/08 00:40:59;;;;;;;;;;;13.60;99.90;;;;;;5077279;28;19927;-72
2022/11/08 00:43:25;;;;;;;;;;;13.40;99.90;;;;;;5077264;28;19924;-72
2022/11/08 00:45:50;;;;;;;;;;;13.50;99.90;;;;;;5076839;28;20403;-71
2022/11/08 00:48:16;;;;;;;;;;;13.30;99.90;;;;;;5077644;28;19924;-72
2022/11/08 00:50:41;;;;;;;;;;;13.60;99.90;;;;;;5077392;28;19934;-72
2022/11/08 00:53:07;;;;;;;;;;;13.50;99.90;;;;;;5095266;28;19973;-72
2022/11/08 00:55:32;;;;;;;;;;;13.50;99.90;;;;;;5076418;28;20014;-73
2022/11/08 00:57:58;;;;;;;;;;;13.30;99.90;;;;;;5083838;28;19971;-72
2022/11/08 01:00:24;;;;;;;;;;;13.30;99.90;;;;;;5056955;28;20302;-72
2022/11/08 01:03:17;;;;;;;;;;;13.40;99.90;;;;;;5056962;28;19927;-71
2022/11/08 01:05:38;;;;;;;;;;;13.40;99.90;;;;;;5075125;28;20301;-71
2022/11/08 01:08:04;;;;;;;;;;;13.30;99.90;;;;;;5075396;28;19925;-72
2022/11/08 01:10:29;;;;;;;;;;;13.30;99.90;;;;;;5057231;28;19927;-72
2022/11/08 01:12:55;;;;;;;;;;;13.40;99.90;;;;;;5040081;28;19921;-72
2022/11/08 01:15:20;;;;;;;;;;;13.40;99.90;;;;;;5056174;28;20018;-71
2022/11/08 01:17:46;;;;;;;;;;;13.50;99.90;;;;;;5056696;28;20412;-72
2022/11/08 01:20:11;;;;;;;;;;;13.20;99.90;;;;;;5075523;28;19982;-72
2022/11/08 01:22:37;;;;;;;;;;;13.30;99.90;;;;;;5039825;28;19924;-72
2022/11/08 01:25:02;;;;;;;;;;;13.20;99.90;;;;;;5055702;28;19964;-71
2022/11/08 01:27:28;;;;;;;;;;;13.50;99.90;;;;;;5056521;28;19920;-72
2022/11/08 01:29:53;;;;;;;;;;;13.20;99.90;;;;;;5056511;28;19927;-72
2022/11/08 01:32:19;;;;;;;;;;;13.30;99.90;;;;;;5074384;28;19924;-72
2022/11/08 01:34:44;;;;;;;;;;;13.00;99.90;;;;;;5055682;28;19927;-71
2022/11/08 01:37:09;;;;;;;;;;;12.90;99.90;;;;;;5079666;28;19967;-72
2022/11/08 01:39:35;;;;;;;;;;;13.00;99.90;;;;;;5076281;28;19924;-72
2022/11/08 01:42:01;;;;;;;;;;;13.20;99.90;;;;;;5076549;28;20293;-71
2022/11/08 01:44:26;;;;;;;;;;;13.20;99.90;;;;;;5074688;28;19934;-71
2022/11/08 01:46:52;;;;;;;;;;;13.30;99.90;;;;;;5093849;28;19920;-72
2022/11/08 01:49:35;;;;;;;;;;;13.90;99.90;;;;;;5076082;28;19927;-72
2022/11/08 01:52:04;;;;;;;;;;;12.90;99.90;;;;;;5075626;28;19942;-72
2022/11/08 01:54:30;;;;;;;;;;;12.90;99.90;;;;;;5073492;28;20339;-72
2022/11/08 01:56:56;;;;;;;;;;;13.40;99.90;;;;;;5058875;28;19927;-72
2022/11/08 01:59:22;;;;;;;;;;;13.10;99.90;;;;;;5094079;28;19924;-72
2022/11/08 02:01:48;;;;;;;;;;;13.10;99.90;;;;;;5075697;28;20437;-71
2022/11/08 02:04:13;;;;;;;;;;;13.00;99.90;;;;;;5075124;28;19971;-71
2022/11/08 02:06:39;;;;;;;;;;;13.20;99.90;;;;;;5075843;28;19931;-72
2022/11/08 02:09:07;;;;;;;;;;;13.10;99.90;;;;;;5075621;28;20300;-72
2022/11/08 02:11:33;;;;;;;;;;;13.20;99.90;;;;;;5074461;28;19923;-72
2022/11/08 02:13:59;;;;;;;;;;;12.90;99.90;;;;;;5058175;28;20019;-71
2022/11/08 02:16:24;;;;;;;;;;;13.10;99.90;;;;;;5073461;28;20078;-72
2022/11/08 02:18:50;;;;;;;;;;;13.10;99.90;;;;;;5058819;28;19924;-72
2022/11/08 02:21:19;;;;;;;;;;;13.00;99.90;;;;;;5093607;28;19923;-72
2022/11/08 02:23:56;;;;;;;;;;;12.90;99.90;;;;;;5074872;28;19920;-70
2022/11/08 02:26:27;;;;;;;;;;;13.10;99.90;;;;;;5074085;28;20348;-72
2022/11/08 02:28:53;;;;;;;;;;;12.80;99.90;;;;;;5075279;28;19928;-72
2022/11/08 02:31:19;;;;;;;;;;;12.90;99.90;;;;;;5058614;28;19924;-72
2022/11/08 02:33:45;;;;;;;;;;;12.90;99.90;;;;;;5093116;28;19971;-70
2022/11/08 02:36:12;;;;;;;;;;;12.60;99.90;;;;;;5094336;28;20487;-73
2022/11/08 02:38:39;;;;;;;;;;;12.70;99.90;;;;;;5064568;28;20354;-72
2022/11/08 02:41:05;;;;;;;;;;;12.70;99.90;;;;;;5062713;28;19977;-72
2022/11/08 02:43:30;;;;;;;;;;;12.60;99.90;;;;;;5092620;28;20011;-72
2022/11/08 02:45:57;;;;;;;;;;;12.60;99.90;;;;;;5092619;28;19938;-72
2022/11/08 02:48:22;;;;;;;;;;;12.50;99.90;;;;;;5075418;28;20053;-71
2022/11/08 02:50:48;;;;;;;;;;;12.50;99.90;;;;;;5075597;28;19963;-72
2022/11/08 02:53:13;;;;;;;;;;;12.60;99.90;;;;;;5075064;28;19928;-72
2022/11/08 02:55:39;;;;;;;;;;;12.40;99.90;;;;;;5074192;28;19924;-72
2022/11/08 02:58:04;;;;;;;;;;;12.60;99.90;;;;;;5056134;28;19929;-72
2022/11/08 03:00:30;;;;;;;;;;;12.60;99.90;;;;;;5074717;28;19993;-72
2022/11/08 03:02:56;;;;;;;;;;;12.60;99.90;;;;;;5075057;28;20023;-72
2022/11/08 03:05:22;;;;;;;;;;;12.50;99.90;;;;;;5092230;28;19920;-71
2022/11/08 03:07:48;;;;;;;;;;;12.80;99.90;;;;;;5075025;28;19920;-72
2022/11/08 03:10:13;;;;;;;;;;;12.50;99.90;;;;;;5074699;28;19920;-72
2022/11/08 03:12:39;;;;;;;;;;;12.20;99.90;;;;;;5092564;28;19978;-72
2022/11/08 03:15:06;;;;;;;;;;;12.60;99.90;;;;;;5090390;28;20377;-71
2022/11/08 03:17:31;;;;;;;;;;;12.20;99.90;;;;;;5092217;28;19944;-71
2022/11/08 03:19:57;;;;;;;;;;;12.30;99.90;;;;;;5074424;28;19924;-71
2022/11/08 03:22:22;;;;;;;;;;;12.40;99.90;;;;;;5074303;28;19920;-71
2022/11/08 03:24:48;;;;;;;;;;;12.40;99.90;;;;;;5073713;28;19927;-71
2022/11/08 03:27:14;;;;;;;;;;;12.50;99.90;;;;;;5074561;28;19920;-71
2022/11/08 03:29:40;;;;;;;;;;;12.20;99.90;;;;;;5074355;28;20459;-71
2022/11/08 03:32:05;;;;;;;;;;;12.20;99.90;;;;;;5062660;28;19968;-71
2022/11/08 03:34:31;;;;;;;;;;;12.20;99.90;;;;;;5053649;28;19928;-71
2022/11/08 03:36:56;;;;;;;;;;;12.20;99.90;;;;;;5054159;28;19925;-71
2022/11/08 03:39:22;;;;;;;;;;;12.00;99.90;;;;;;5054301;28;19929;-71
2022/11/08 03:41:47;;;;;;;;;;;12.00;99.90;;;;;;5071948;28;19976;-72
2022/11/08 03:44:12;;;;;;;;;;;12.30;99.90;;;;;;5071362;28;19924;-71
2022/11/08 03:46:38;;;;;;;;;;;12.10;99.90;;;;;;5054069;28;19920;-72
2022/11/08 03:49:03;;;;;;;;;;;12.10;99.90;;;;;;5055300;28;19931;-71
2022/11/08 03:51:29;;;;;;;;;;;12.00;99.90;;;;;;5053919;28;19924;-71
2022/11/08 03:53:54;;;;;;;;;;;11.90;99.90;;;;;;5053141;28;20011;-70
2022/11/08 03:56:20;;;;;;;;;;;12.10;99.90;;;;;;5062890;28;19928;-71
2022/11/08 03:58:45;;;;;;;;;;;12.00;99.90;;;;;;5057286;28;19927;-72
2022/11/08 04:01:11;;;;;;;;;;;12.60;99.90;;;;;;5073935;28;19928;-72
2022/11/08 04:03:36;;;;;;;;;;;12.00;99.90;;;;;;5072283;28;19928;-72
2022/11/08 04:06:02;;;;;;;;;;;12.10;99.90;;;;;;5091918;28;20416;-71
2022/11/08 04:08:28;;;;;;;;;;;12.00;99.90;;;;;;5078051;28;19920;-71
2022/11/08 04:10:55;;;;;;;;;;;11.80;99.90;;;;;;5096070;28;20390;-71
2022/11/08 04:16:04;;;;;;;;;;;11.70;99.90;;;;;;5077180;28;19927;-71
2022/11/08 04:21:18;;;;;;;;;;;11.70;99.90;;;;;;5094157;28;20387;-71
2022/11/08 04:23:44;;;;;;;;;;;11.60;99.90;;;;;;5095344;28;19927;-70
2022/11/08 04:26:13;;;;;;;;;;;11.70;99.90;;;;;;5060479;28;20381;-71
2022/11/08 04:28:39;;;;;;;;;;;11.90;99.90;;;;;;5077608;28;19920;-71
2022/11/08 04:31:06;;;;;;;;;;;12.40;99.90;;;;;;5077842;28;19920;-71
2022/11/08 04:33:32;;;;;;;;;;;12.00;99.90;;;;;;5077148;28;19920;-71
2022/11/08 04:36:02;;;;;;;;;;;11.90;99.90;;;;;;5076604;28;20014;-71
2022/11/08 04:38:29;;;;;;;;;;;12.00;99.90;;;;;;5076018;28;20451;-71
2022/11/08 04:40:59;;;;;;;;;;;11.60;99.90;;;;;;5060334;28;19974;-72
2022/11/08 04:43:25;;;;;;;;;;;11.90;99.90;;;;;;5096099;28;19927;-71
2022/11/08 04:45:50;;;;;;;;;;;11.60;99.90;;;;;;5076954;28;20309;-71
2022/11/08 04:48:16;;;;;;;;;;;11.80;99.90;;;;;;5095548;28;19966;-72
2022/11/08 04:50:41;;;;;;;;;;;11.90;99.90;;;;;;5077154;28;20404;-72
2022/11/08 04:53:07;;;;;;;;;;;11.80;99.90;;;;;;5093820;28;21678;-71
2022/11/08 04:55:32;;;;;;;;;;;11.90;99.90;;;;;;5069286;28;19925;-71
2022/11/08 04:57:58;;;;;;;;;;;12.30;99.90;;;;;;5057404;28;19964;-71
2022/11/08 05:00:24;;;;;;;;;;;;;;;;;;5040324;28;20390;-71
2022/11/08 05:02:49;;;;;;;;;;;11.70;99.90;;;;;;5073164;28;19931;-71
2022/11/08 05:05:15;;;;;;;;;;;11.80;99.90;;;;;;5074126;28;19920;-71
2022/11/08 05:07:40;;;;;;;;;;;11.70;99.90;;;;;;5074805;28;19960;-71
2022/11/08 05:10:06;;;;;;;;;;;11.80;99.90;;;;;;5058333;28;19973;-71
2022/11/08 05:12:31;;;;;;;;;;;11.70;99.90;;;;;;5056949;28;20416;-71
2022/11/08 05:14:57;;;;;;;;;;;11.90;99.90;;;;;;5074209;28;19924;-71
2022/11/08 05:17:22;;;;;;;;;;;11.80;99.90;;;;;;5056004;28;20431;-72
2022/11/08 05:25:16;;;;;;;;;;;12.00;99.90;;;;;;5074895;28;20006;-71
2022/11/08 05:27:42;;;;;;;;;;;11.80;99.90;;;;;;5074543;28;20365;-71
2022/11/08 05:30:07;;;;;;;;;;;11.90;99.90;;;;;;5039789;28;19920;-71
2022/11/08 05:32:33;;;;;;;;;;;12.00;99.90;;;;;;5056373;28;20374;-72
2022/11/08 05:34:58;;;;;;;;;;;11.70;99.90;;;;;;5055874;28;19946;-71
2022/11/08 05:37:24;;;;;;;;;;;11.80;99.90;;;;;;5056366;28;19916;-71
2022/11/08 05:39:49;;;;;;;;;;;11.70;99.90;;;;;;5056489;28;20432;-72
2022/11/08 05:42:14;;;;;;;;;;;11.70;99.90;;;;;;5057170;28;19921;-72
2022/11/08 05:44:40;;;;;;;;;;;11.70;99.90;;;;;;5073453;28;19939;-71
2022/11/08 05:47:05;;;;;;;;;;;11.70;99.90;;;;;;5056306;28;20283;-71
2022/11/08 05:49:31;;;;;;;;;;;11.90;99.90;;;;;;5056412;28;19978;-71
2022/11/08 05:51:56;;;;;;;;;;;11.70;99.90;;;;;;5056167;28;19956;-71
2022/11/08 05:54:22;;;;;;;;;;;11.60;99.90;;;;;;5055406;28;19926;-71
2022/11/08 05:56:47;;;;;;;;;;;11.60;99.90;;;;;;5074137;28;19920;-71
2022/11/08 05:59:13;;;;;;;;;;;11.50;99.90;;;;;;5040770;28;20337;-72
2022/11/08 06:01:38;;;;;;;;;;;11.70;99.90;;;;;;5074264;28;19924;-71
2022/11/08 06:04:04;;;;;;;;;;;11.70;99.90;;;;;;5055269;28;20283;-72
2022/11/08 06:06:29;;;;;;;;;;;11.80;99.90;;;;;;5074169;28;19928;-72
2022/11/08 06:08:55;;;;;;;;;;;11.60;99.90;;;;;;5074233;28;19927;-72
2022/11/08 06:11:21;;;;;;;;;;;11.60;99.90;;;;;;5039953;28;19920;-72
2022/11/08 06:13:47;;;;;;;;;;;11.60;99.90;;;;;;5055745;28;19942;-71
2022/11/08 06:16:13;;;;;;;;;;;11.60;99.90;;;;;;5056857;28;20374;-72
2022/11/08 06:18:39;;;;;;;;;;;12.00;99.90;;;;;;5055486;28;19924;-72
2022/11/08 06:21:06;;;;;;;;;;;11.90;99.90;;;;;;5055726;28;19925;-72
2022/11/08 06:23:32;;;;;;;;;;;11.70;99.90;;;;;;5077622;22;19929;-72
2022/11/08 06:25:58;;;;;;;;;;;11.50;99.90;;;;;;5071591;28;20027;-72
2022/11/08 06:28:23;;;;;;;;;;;11.70;99.90;;;;;;5073525;28;19920;-72
2022/11/08 06:30:49;;;;;;;;;;;12.30;99.90;;;;;;5071225;28;19920;-72
2022/11/08 06:33:15;;;;;;;;;;;11.70;99.90;;;;;;5073475;28;20536;-73
2022/11/08 06:35:40;;;;;;;;;;;11.70;99.90;;;;;;5071574;28;19927;-72
2022/11/08 06:38:06;;;;;;;;;;;11.80;99.90;;;;;;5072134;28;19967;-72
2022/11/08 06:40:32;;;;;;;;;;;11.60;99.90;;;;;;5055761;28;19986;-72
2022/11/08 06:42:57;;;;;;;;;;;11.80;99.90;;;;;;5071892;28;19920;-72
2022/11/08 06:45:26;;;;;;;;;;;11.70;99.90;;;;;;5054613;28;20015;-72
2022/11/08 06:47:56;;;;;;;;;;;11.70;99.90;;;;;;5071045;28;19931;-72
2022/11/08 06:50:21;;;;;;;;;;;11.70;99.90;;;;;;5071219;28;19977;-72
2022/11/08 06:52:47;;;;;;;;;;;12.00;99.90;;;;;;5072953;28;20027;-72
2022/11/08 06:55:12;;;;;;;;;;;11.80;99.90;;;;;;5054306;28;19920;-73
2022/11/08 06:57:38;;;;;;;;;;;11.90;99.90;;;;;;5071546;28;19920;-72
2022/11/08 07:00:04;;;;;;;;;;;11.90;99.90;;;;;;5054829;28;19936;-72
2022/11/08 07:02:29;;;;;;;;;;;11.60;99.90;;;;;;5072652;28;19943;-73
2022/11/08 07:04:54;;;;;;;;;;;11.70;99.90;;;;;;5070879;28;20402;-72
2022/11/08 07:07:20;;;;;;;;;;;11.90;99.90;;;;;;5071595;28;20015;-72
2022/11/08 07:09:45;;;;;;;;;;;11.90;99.90;;;;;;5071372;28;19920;-72
2022/11/08 07:12:11;;;;;;;;;;;;;;;;;;5070975;28;19925;-72
2022/11/08 07:14:42;;;;;;;;;;;11.90;99.90;;;;;;5070818;28;19924;-72
2022/11/08 07:17:07;;;;;;;;;;;11.80;99.90;;;;;;5071509;28;19920;-72
2022/11/08 07:19:33;;;;;;;;;;;11.80;99.90;;;;;;5060365;28;19932;-72
2022/11/08 07:21:58;;;;;;;;;;;11.90;99.90;;;;;;5062285;28;20437;-73
2022/11/08 07:24:24;;;;;;;;;;;11.80;99.90;;;;;;5071586;28;19974;-73
2022/11/08 07:26:49;;;;;;;;;;;11.90;99.90;;;;;;5070435;28;19959;-73
2022/11/08 07:29:15;;;;;;;;;;;11.90;99.90;;;;;;5062808;28;19994;-73
2022/11/08 07:31:40;;;;;;;;;;;11.80;99.90;;;;;;5053497;28;19935;-73
2022/11/08 07:34:06;;;;;;;;;;;12.00;99.90;;;;;;5055766;28;20328;-72
2022/11/08 07:36:32;;;;;;;;;;;;;;;;;;5066602;28;19928;-72
2022/11/08 07:38:57;;;;;;;;;;;12.10;99.90;;;;;;5064886;28;19920;-72
2022/11/08 07:41:23;;;;;;;;;;;12.00;99.90;;;;;;5065102;28;20216;-72
2022/11/08 07:43:48;;;;;;;;;;;12.10;99.90;;;;;;5063458;28;19931;-72
2022/11/08 07:46:13;;;;;;;;;;;12.20;99.90;;;;;;5059616;28;19921;-72
2022/11/08 07:48:39;;;;;;;;;;;12.00;99.90;;;;;;5040397;28;19932;-73
2022/11/08 07:51:05;;;;;;;;;;;12.00;99.90;;;;;;5063314;28;19928;-77
2022/11/08 07:53:30;;;;;;;;;;;12.20;99.90;;;;;;5066131;28;19921;-72
2022/11/08 07:55:57;;;;;;;;;;;12.00;99.90;;;;;;5066599;28;20464;-71
2022/11/08 07:58:22;;;;;;;;;;;12.10;99.90;;;;;;5049689;28;19931;-72
2022/11/08 08:00:48;;;;;;;;;;;12.30;99.90;;;;;;5055246;28;19925;-72
2022/11/08 08:03:14;;;;;;;;;;;12.20;99.90;;;;;;5049276;28;20368;-73
2022/11/08 08:05:41;;;;;;;;;;;12.20;99.90;;;;;;5061793;28;19999;-72
2022/11/08 08:08:07;;;;;;;;;;;;;;;;;;5068297;28;19920;-72
2022/11/08 08:10:33;;;;;;;;;;;12.50;99.90;;;;;;5061061;28;20350;-72
2022/11/08 08:12:59;;;;;;;;;;;12.20;99.90;;;;;;5050632;28;20369;-72
2022/11/08 08:15:25;;;;;;;;;;;12.20;99.90;;;;;;5049378;28;19947;-72
2022/11/08 08:17:50;;;;;;;;;;;12.80;99.90;;;;;;5048817;28;19921;-72
2022/11/08 08:20:16;;;;;;;;;;;12.40;99.90;;;;;;5049111;28;19960;-72
2022/11/08 08:22:42;;;;;;;;;;;12.60;99.90;;;;;;5048892;28;20344;-73
2022/11/08 08:25:08;;;;;;;;;;;12.70;99.90;;;;;;5049594;28;20015;-72
2022/11/08 08:27:33;;;;;;;;;;;12.60;99.90;;;;;;5032361;28;20024;-72
2022/11/08 08:29:58;;;;;;;;;;;12.70;99.90;;;;;;5048637;28;19925;-72
2022/11/08 08:32:24;;;;;;;;;;;12.80;99.90;;;;;;5052827;28;20342;-72
2022/11/08 08:34:49;;;;;;;;;;;12.50;99.90;;;;;;5059896;28;19920;-72
2022/11/08 08:37:16;;;;;;;;;;;12.70;99.90;;;;;;5059614;28;19927;-72
2022/11/08 08:39:41;;;;;;;;;;;12.60;99.90;;;;;;5039993;28;19944;-72
2022/11/08 08:42:07;;;;;;;;;;;12.80;99.90;;;;;;5051073;28;19936;-72
2022/11/08 08:44:32;;;;;;;;;;;12.60;99.90;;;;;;5067897;28;20003;-73
2022/11/08 08:46:58;;;;;;;;;;;12.90;99.90;;;;;;5044289;28;19944;-72
2022/11/08 08:49:24;;;;;;;;;;;12.70;99.90;;;;;;5050117;28;19927;-72
2022/11/08 08:51:49;;;;;;;;;;;13.70;99.90;;;;;;5051505;28;19921;-72
2022/11/08 08:54:15;;;;;;;;;;;12.90;99.90;;;;;;5053565;28;19924;-73
2022/11/08 08:56:40;;;;;;;;;;;13.20;99.90;;;;;;5054521;28;19927;-72
2022/11/08 08:59:06;;;;;;;;;;;13.20;99.90;;;;;;5073250;28;19920;-72
2022/11/08 09:01:31;;;;;;;;;;;13.10;99.90;;;;;;5064757;28;19925;-72
2022/11/08 09:03:57;;;;;;;;;;;13.00;99.90;;;;;;5073671;28;19921;-72
2022/11/08 09:06:23;;;;;;;;;;;13.30;99.90;;;;;;5073786;28;19964;-72
2022/11/08 09:08:49;;;;;;;;;;;13.30;99.90;;;;;;5054313;28;20390;-72
2022/11/08 09:11:14;;;;;;;;;;;13.20;99.90;;;;;;5071766;28;19920;-72
2022/11/08 09:13:40;;;;;;;;;;;13.10;99.90;;;;;;5064105;28;19963;-73
2022/11/08 09:16:06;;;;;;;;;;;13.30;99.90;;;;;;5061826;28;19973;-74
2022/11/08 09:18:32;;;;;;;;;;;13.00;99.90;;;;;;5063090;28;19924;-72
2022/11/08 09:20:58;;;;;;;;;;;13.20;99.90;;;;;;5052923;28;20008;-72
2022/11/08 09:23:24;;;;;;;;;;;13.30;99.90;;;;;;5052956;28;19996;-72
2022/11/08 09:25:54;;;;;;;;;;;13.20;99.90;;;;;;5051679;28;19925;-72
2022/11/08 09:28:20;;;;;;;;;;;13.30;99.90;;;;;;5054790;28;19921;-72
2022/11/08 09:30:45;;;;;;;;;;;13.40;99.90;;;;;;5054031;28;19928;-72
2022/11/08 09:33:11;;;;;;;;;;;13.40;99.90;;;;;;5050512;28;20016;-73
2022/11/08 09:35:36;;;;;;;;;;;13.40;99.90;;;;;;5053062;28;19920;-72
2022/11/08 09:38:02;;;;;;;;;;;13.40;99.90;;;;;;5062144;28;19927;-72
2022/11/08 09:40:36;;;;;;;;;;;13.30;99.90;;;;;;5063824;28;19924;-72
2022/11/08 09:43:02;;;;;;;;;;;;;;;;;;5056236;28;20011;-72
2022/11/08 09:45:39;;;;;;;;;;;13.20;99.90;;;;;;5053139;28;20043;-72
2022/11/08 09:48:06;;;;;;;;;;;13.50;99.90;;;;;;5052304;28;19921;-72
2022/11/08 09:50:34;;;;;;;;;;;13.50;99.90;;;;;;5052151;28;19999;-72
2022/11/08 09:53:05;;;;;;;;;;;13.40;99.90;;;;;;5035932;28;20371;-72
2022/11/08 09:55:35;;;;;;;;;;;13.50;99.90;;;;;;5039411;28;19963;-72
2022/11/08 09:58:03;;;;;;;;;;;14.30;99.90;;;;;;5072779;28;19920;-72
2022/11/08 10:00:29;;;;;;;;;;;13.40;99.90;;;;;;5072092;28;19928;-72
2022/11/08 10:02:55;;;;;;;;;;;13.50;99.90;;;;;;5057357;28;19928;-72
2022/11/08 10:05:20;;;;;;;;;;;13.50;99.90;;;;;;5050915;28;20410;-72
2022/11/08 10:07:58;;;;;;;;;;;13.40;99.90;;;;;;5054792;28;19921;-73
2022/11/08 10:10:48;;;;;;;;;;;13.50;99.90;;;;;;5052304;28;19974;-72
2022/11/08 10:13:33;;;;;;;;;;;13.50;99.90;;;;;;5035365;28;20011;-72
2022/11/08 10:16:17;;;;;;;;;;;13.40;99.90;;;;;;5052823;28;19932;-72
2022/11/08 10:18:42;;;;;;;;;;;13.70;99.90;;;;;;5052388;28;20390;-73
2022/11/08 10:21:08;;;;;;;;;;;;;;;;;;5053210;28;19999;-72
2022/11/08 10:23:39;;;;;;;;;;;13.50;99.90;;;;;;5052881;28;19944;-71
2022/11/08 10:26:13;;;;;;;;;;;13.80;99.90;;;;;;5050964;28;19928;-71
2022/11/08 10:28:40;;;;;;;;;;;13.60;99.90;;;;;;5035509;28;19921;-71
2022/11/08 10:31:07;;;;;;;;;;;13.60;99.90;;;;;;5053046;28;19924;-71
2022/11/08 10:33:41;;;;;;;;;;;13.40;99.90;;;;;;5053308;28;20391;-72
2022/11/08 10:36:27;;;;;;;;;;;13.50;99.90;;;;;;5034641;28;20338;-72
2022/11/08 10:38:59;;;;;;;;;;;13.60;99.90;;;;;;5030588;28;20382;-72
2022/11/08 10:41:25;;;;;;;;;;;13.50;99.90;;;;;;5070256;28;19954;-71
2022/11/08 10:44:04;;;;;;;;;;;13.50;99.90;;;;;;5068007;28;19920;-71
2022/11/08 10:46:49;;;;;;;;;;;13.40;99.90;;;;;;5054683;28;19991;-72
2022/11/08 10:49:17;;;;;;;;;;;13.50;99.90;;;;;;5067278;28;19931;-72
2022/11/08 10:51:43;;;;;;;;;;;13.70;99.90;;;;;;5071443;28;19920;-72
2022/11/08 10:54:29;;;;;;;;;;;13.70;99.90;;;;;;5074270;28;19925;-72
2022/11/08 10:56:54;;;;;;;;;;;13.60;99.90;;;;;;5068431;28;19928;-72
2022/11/08 10:59:30;;;;;;;;;;;13.80;99.90;;;;;;5061453;28;19921;-72
2022/11/08 11:01:55;;;;;;;;;;;13.60;99.90;;;;;;5072906;28;19974;-72
2022/11/08 11:04:26;;;;;;;;;;;13.60;99.90;;;;;;5070351;28;19928;-73
2022/11/08 11:06:51;;;;;;;;;;;14.10;99.90;;;;;;5070673;28;20373;-72
2022/11/08 11:09:18;;;;;;;;;;;13.90;99.90;;;;;;5071242;28;19967;-73
2022/11/08 11:11:44;;;;;;;;;;;14.00;99.90;;;;;;5069646;28;19966;-72
2022/11/08 11:14:10;;;;;;;;;;;13.90;99.90;;;;;;5051969;28;19921;-72
2022/11/08 11:16:36;;;;;;;;;;;14.10;99.90;;;;;;5052884;28;19921;-73
2022/11/08 11:19:03;;;;;;;;;;;14.20;99.90;;;;;;5071861;28;20023;-73
2022/11/08 11:21:35;;;;;;;;;;;14.20;99.90;;;;;;5070325;28;20355;-73
2022/11/08 11:24:06;;;;;;;;;;;14.30;99.90;;;;;;5069645;28;19932;-72
2022/11/08 11:26:33;;;;;;;;;;;14.30;99.90;;;;;;5070432;28;19932;-72
2022/11/08 11:29:04;;;;;;;;;;;14.30;99.90;;;;;;5056490;28;19921;-73
2022/11/08 11:31:31;;;;;;;;;;;14.20;99.90;;;;;;5069280;28;19921;-73
2022/11/08 11:33:57;;;;;;;;;;;14.50;99.90;;;;;;5056211;28;19921;-72
2022/11/08 11:36:24;;;;;;;;;;;14.30;99.90;;;;;;5050958;28;19921;-73
2022/11/08 11:39:03;;;;;;;;;;;14.30;99.90;;;;;;5051864;28;20302;-72
2022/11/08 11:41:44;;;;;;;;;;;14.60;99.90;;;;;;5047224;28;19936;-73
2022/11/08 11:44:09;;;;;;;;;;;14.40;99.90;;;;;;5058415;28;19940;-73
2022/11/08 11:46:38;;;;;;;;;;;14.70;99.90;;;;;;5055097;28;20402;-72
2022/11/08 11:49:05;;;;;;;;;;;14.50;99.90;;;;;;5066770;28;19931;-72
2022/11/08 11:51:31;;;;;;;;;;;14.50;99.90;;;;;;5064574;28;19922;-72
2022/11/08 11:53:57;;;;;;;;;;;14.50;99.90;;;;;;5048686;28;20298;-73
2022/11/08 11:56:41;;;;;;;;;;;14.60;99.90;;;;;;5060150;28;19932;-73
2022/11/08 11:59:26;;;;;;;;;;;14.60;99.90;;;;;;5060715;28;19931;-72
2022/11/08 12:02:16;;;;;;;;;;;14.70;99.90;;;;;;5064435;28;20680;-72
2022/11/08 12:04:51;;;;;;;;;;;14.60;99.90;;;;;;5062490;28;20015;-73
2022/11/08 12:07:17;;;;;;;;;;;;;;;;;;5056262;28;19921;-72
2022/11/08 12:10:01;;;;;;;;;;;14.70;99.90;;;;;;5069836;28;20310;-73
2022/11/08 12:12:32;;;;;;;;;;;14.70;99.90;;;;;;5069872;28;20283;-72
2022/11/08 12:15:06;;;;;;;;;;;14.90;99.90;;;;;;5070821;28;19927;-72
2022/11/08 12:17:52;;;;;;;;;;;14.80;99.90;;;;;;5048278;28;19944;-73
2022/11/08 12:20:23;;;;;;;;;;;15.60;99.90;;;;;;5066309;28;19951;-75
2022/11/08 12:22:49;;;;;;;;;;;15.00;99.90;;;;;;5034523;28;20379;-73
2022/11/08 12:25:23;;;;;;;;;;;15.00;99.90;;;;;;5049847;28;20015;-73
2022/11/08 12:27:55;;;;;;;;;;;14.90;99.90;;;;;;5052500;28;20333;-73
2022/11/08 12:30:29;;;;;;;;;;;15.00;99.90;;;;;;5054745;28;20023;-73
2022/11/08 12:33:14;;;;;;;;;;;15.10;99.90;;;;;;5040100;28;19921;-73
2022/11/08 12:35:45;;;;;;;;;;;14.90;99.90;;;;;;5055973;28;20058;-73
2022/11/08 12:38:22;;;;;;;;;;;15.30;99.90;;;;;;5071640;28;20403;-73
2022/11/08 12:40:47;;;;;;;;;;;15.30;99.90;;;;;;5073445;28;20375;-73
2022/11/08 12:43:31;;;;;;;;;;;15.40;99.90;;;;;;5053457;28;19921;-73
2022/11/08 12:46:11;;;;;;;;;;;15.40;99.90;;;;;;5083045;28;20275;-73
2022/11/08 12:48:47;;;;;;;;;;;15.30;99.90;;;;;;5072295;28;19921;-73
2022/11/08 12:51:45;;;;;;;;;;;15.20;99.90;;;;;;5074191;28;19920;-73
2022/11/08 12:54:29;;;;;;;;;;;15.30;99.90;;;;;;5044862;28;19929;-73
2022/11/08 12:56:57;;;;;;;;;;;15.30;99.90;;;;;;5074441;28;19971;-72
2022/11/08 12:59:26;;;;;;;;;;;15.10;99.90;;;;;;5071469;28;20390;-72
2022/11/08 13:01:52;;;;;;;;;;;16.00;99.90;;;;;;5055198;28;19924;-71
2022/11/08 13:04:24;;;;;;;;;;;15.30;99.90;;;;;;5051003;28;19944;-71
2022/11/08 13:06:58;;;;;;;;;;;15.10;99.90;;;;;;5066352;28;19925;-72
2022/11/08 13:09:27;;;;;;;;;;;15.40;99.90;;;;;;5070658;28;19963;-71
2022/11/08 13:11:53;;;;;;;;;;;15.40;99.90;;;;;;5079730;28;19956;-71
2022/11/08 13:14:20;;;;;;;;;;;15.20;99.90;;;;;;5082429;28;20306;-71
2022/11/08 13:17:05;;;;;;;;;;;15.30;99.90;;;;;;5084859;28;20096;-71
2022/11/08 13:19:46;;;;;;;;;;;15.30;99.90;;;;;;5084160;28;20302;-71
2022/11/08 13:22:12;;;;;;;;;;;;;;;;;;5073515;28;19931;-71
2022/11/08 13:24:40;;;;;;;;;;;15.10;99.90;;;;;;5061120;28;19921;-71
2022/11/08 13:27:44;;;;;;;;;;;15.10;99.90;;;;;;5053707;28;20382;-71
2022/11/08 13:30:15;;;;;;;;;;;15.20;99.90;;;;;;4996171;28;19922;-71
2022/11/08 13:32:59;;;;;;;;;;;14.90;99.90;;;;;;4995794;28;19922;-71
2022/11/08 13:35:36;;;;;;;;;;;15.00;99.90;;;;;;5037831;28;19921;-71
2022/11/08 13:38:14;;;;;;;;;;;15.00;99.90;;;;;;5053652;28;20451;-71
2022/11/08 13:40:58;;;;;;;;;;;14.90;99.90;;;;;;5052502;28;20299;-71
2022/11/08 13:43:31;;;;;;;;;;;14.90;99.90;;;;;;5060081;28;19970;-71
2022/11/08 13:46:15;;;;;;;;;;;14.90;99.90;;;;;;5072635;28;19927;-71
2022/11/08 13:48:41;;;;;;;;;;;14.80;99.90;;;;;;5074430;28;19921;-71
2022/11/08 13:51:25;;;;;;;;;;;14.80;99.90;;;;;;5055793;28;20031;-72
2022/11/08 13:53:53;;;;;;;;;;;14.90;99.90;;;;;;5071886;28;19921;-71
2022/11/08 13:56:37;;;;;;;;;;;15.00;99.90;;;;;;5071281;28;19966;-71
2022/11/08 13:59:23;;;;;;;;;;;14.70;99.90;;;;;;5072621;28;19921;-71
2022/11/08 14:01:55;;;;;;;;;;;14.80;99.90;;;;;;5072283;28;19924;-72
2022/11/08 14:04:23;;;;;;;;;;;14.80;99.90;;;;;;5064795;28;20339;-71
2022/11/08 14:06:55;;;;;;;;;;;14.90;99.90;;;;;;5052186;28;19962;-71
2022/11/08 14:09:40;;;;;;;;;;;14.90;99.90;;;;;;5052678;28;19967;-71
2022/11/08 14:12:20;;;;;;;;;;;15.10;99.90;;;;;;5048691;28;19929;-70
2022/11/08 14:15:06;;;;;;;;;;;14.90;99.90;;;;;;5047880;28;20466;-71
2022/11/08 14:17:51;;;;;;;;;;;14.90;99.90;;;;;;5052633;28;19921;-71
2022/11/08 14:20:36;;;;;;;;;;;15.70;99.90;;;;;;5070685;28;20301;-71
2022/11/08 14:23:11;;;;;;;;;;;14.70;99.90;;;;;;5068571;28;19921;-71
2022/11/08 14:25:38;;;;;;;;;;;14.70;99.90;;;;;;5070771;28;19956;-71
2022/11/08 14:28:03;;;;;;;;;;;14.70;99.90;;;;;;5055188;28;19997;-71
2022/11/08 14:30:29;;;;;;;;;;;14.60;99.90;;;;;;5073085;28;20007;-72
2022/11/08 14:33:13;;;;;;;;;;;14.60;99.90;;;;;;5071590;28;19920;-71
2022/11/08 14:35:38;;;;;;;;;;;14.80;99.90;;;;;;5033478;28;19921;-71
2022/11/08 14:38:12;;;;;;;;;;;14.70;99.90;;;;;;5051828;28;20427;-71
2022/11/08 14:40:38;;;;;;;;;;;14.60;99.90;;;;;;5052357;28;19924;-71
2022/11/08 14:43:03;;;;;;;;;;;14.70;99.90;;;;;;5038861;28;19931;-71
2022/11/08 14:45:29;;;;;;;;;;;14.50;99.90;;;;;;5065586;28;19943;-71
2022/11/08 14:48:02;;;;;;;;;;;14.80;99.90;;;;;;5051085;28;20354;-72
2022/11/08 14:50:30;;;;;;;;;;;14.70;99.90;;;;;;5052786;28;19921;-71
2022/11/08 14:53:07;;;;;;;;;;;14.40;99.90;;;;;;5051246;28;19928;-72